Terminal Aerodrome Forecast
Issued by NWS

Home | Current Version | Previous Version | Graphics & Text | Print | Product List | Glossary On
Versions: 1 2 3 4 5 6 7 8 9 10 11 12 13 14 15 16
000
FTUS43 KBIS 220800 AAA
TAFJMS
TAF AMD
KJMS 220800Z 2208/2306 33009KT P6SM BKN009
      TEMPO 2211/2215 5SM BR SCT007 BKN070
     FM221700 35011KT P6SM SCT060=

USA.gov is the U.S. government's official web portal to all federal, state and local government web resources and services.